WXM80 ListenWXM80 Stop

You find our weather info also at:

UK Metoffice

WeatherCloud

Weather Underground

Northeastern Weather Network

AWEKAS

Citizen Weather Observer Program (CWOP)

HAMweather, WeatherForYou, PWS Weather


Weather Underground History page Text

Daily Summary for May 9, 2016 Units:  English    Metric   Both
« Previous Day
Next Day »
Daily Weekly Monthly Yearly Custom
  High: Low: Average:
Temperature: 75.0 °F 46.6 °F 61.8 °F
Dew Point: 48.5 °F 37.5 °F 41.2 °F
Humidity: 71 % 30 % 49 %
Wind Speed: 11.1 mph 0.0 mph 3 mph
Wind Gust: 19.6 mph - -
Wind:- - SW
Pressure: 30.11 in 29.89 in -
Precipitation: 0.00 in    
Historical Graphs
 
 
Tabular Data for May 9, 2016
Time Temperature Dew Point Pressure Wind Wind Speed Wind Gust Humidity Rainfall Rate (Hourly)
00:01 50.7 °F 39.0 °F 29.91 in SW 1.4 mph 1.4 mph 64 % 0.00 in
00:07 51.0 °F 38.4 °F 29.91 in WSW 3.3 mph 4.0 mph 62 % 0.00 in
00:12 51.3 °F 39.1 °F 29.91 in WSW 0.9 mph 3.5 mph 63 % 0.00 in
00:22 51.7 °F 39.5 °F 29.92 in SSW 3.6 mph 4.6 mph 63 % 0.00 in
00:27 52.0 °F 39.0 °F 29.92 in West 5.1 mph 8.1 mph 61 % 0.00 in
00:32 52.5 °F 39.0 °F 29.92 in SSW 3.5 mph 6.9 mph 60 % 0.00 in
00:37 52.8 °F 39.3 °F 29.92 in West 2.7 mph 4.0 mph 60 % 0.00 in
00:42 53.1 °F 39.1 °F 29.93 in WSW 2.7 mph 8.1 mph 59 % 0.00 in
00:47 53.4 °F 39.4 °F 29.92 in WSW 3.2 mph 6.0 mph 59 % 0.00 in
00:52 53.6 °F 40.0 °F 29.92 in WNW 1.9 mph 4.6 mph 60 % 0.00 in
00:58 53.7 °F 40.1 °F 29.92 in SW 2.7 mph 5.8 mph 60 % 0.00 in
01:03 53.7 °F 40.1 °F 29.92 in Calm     60 % 0.00 in
01:08 53.7 °F 40.6 °F 29.92 in SW 0.2 mph 1.2 mph 61 % 0.00 in
01:13 53.6 °F 40.9 °F 29.92 in West 0.5 mph 2.3 mph 62 % 0.00 in
01:18 53.4 °F 41.1 °F 29.92 in WSW 0.2 mph 2.3 mph 63 % 0.00 in
01:23 53.2 °F 40.9 °F 29.92 in WSW 0.6 mph 2.0 mph 63 % 0.00 in
01:28 53.0 °F 40.7 °F 29.92 in SW 1.1 mph 2.3 mph 63 % 0.00 in
01:33 52.8 °F 41.0 °F 29.92 in SW 2.7 mph 3.5 mph 64 % 0.00 in
01:38 52.5 °F 40.7 °F 29.92 in WSW 0.4 mph 2.3 mph 64 % 0.00 in
01:43 52.4 °F 40.6 °F 29.92 in SW 0.4 mph 3.5 mph 64 % 0.00 in
01:54 52.0 °F 39.8 °F 29.92 in WSW 1.0 mph 3.5 mph 63 % 0.00 in
01:59 51.8 °F 39.6 °F 29.92 in SW 1.9 mph 3.5 mph 63 % 0.00 in
02:04 51.6 °F 39.8 °F 29.92 in SSW 1.2 mph 2.3 mph 64 % 0.00 in
02:09 51.4 °F 39.6 °F 29.92 in SSW 1.0 mph 2.3 mph 64 % 0.00 in
02:14 51.2 °F 39.8 °F 29.92 in SSW 0.6 mph 2.3 mph 65 % 0.00 in
02:19 51.0 °F 39.2 °F 29.92 in SSW 1.5 mph 2.3 mph 64 % 0.00 in
02:29 50.6 °F 38.9 °F 29.92 in Calm     64 % 0.00 in
02:34 50.4 °F 38.7 °F 29.92 in SW 0.2 mph 1.2 mph 64 % 0.00 in
02:40 50.2 °F 38.5 °F 29.92 in Calm   1.2 mph 64 % 0.00 in
02:45 50.1 °F 38.4 °F 29.92 in SW 0.8 mph 2.3 mph 64 % 0.00 in
02:50 49.9 °F 38.6 °F 29.92 in Calm   2.3 mph 65 % 0.00 in
02:55 49.7 °F 38.8 °F 29.92 in Calm     66 % 0.00 in
03:00 49.6 °F 38.7 °F 29.92 in Calm     66 % 0.00 in
03:05 49.4 °F 38.9 °F 29.92 in Calm     67 % 0.00 in
03:10 49.2 °F 38.3 °F 29.91 in Calm     66 % 0.00 in
03:15 49.0 °F 38.1 °F 29.91 in Calm     66 % 0.00 in
03:20 48.8 °F 37.9 °F 29.91 in Calm     66 % 0.00 in
03:25 48.6 °F 38.1 °F 29.91 in Calm     67 % 0.00 in
03:31 48.4 °F 37.9 °F 29.91 in Calm     67 % 0.00 in
03:36 48.2 °F 38.1 °F 29.91 in Calm     68 % 0.00 in
03:41 48.0 °F 37.9 °F 29.91 in Calm     68 % 0.00 in
03:46 47.8 °F 38.1 °F 29.91 in Calm     69 % 0.00 in
03:51 47.6 °F 38.3 °F 29.91 in Calm     70 % 0.00 in
03:56 47.4 °F 38.1 °F 29.91 in SW 0.5 mph 1.2 mph 70 % 0.00 in
04:01 47.2 °F 38.3 °F 29.91 in SW 0.1 mph 1.2 mph 71 % 0.00 in
04:06 47.0 °F 38.1 °F 29.92 in SW 0.7 mph 2.3 mph 71 % 0.00 in
04:11 46.9 °F 38.0 °F 29.92 in SW 0.6 mph 2.3 mph 71 % 0.00 in
04:16 46.7 °F 37.8 °F 29.92 in SW 0.1 mph 2.3 mph 71 % 0.00 in
04:22 46.6 °F 37.7 °F 29.92 in SW 1.3 mph 3.5 mph 71 % 0.00 in
04:32 46.6 °F 37.7 °F 29.91 in SW 1.2 mph 2.0 mph 71 % 0.00 in
04:42 46.8 °F 37.5 °F 29.92 in SW 0.4 mph 2.3 mph 70 % 0.00 in
04:47 46.9 °F 37.6 °F 29.92 in SSW 0.2 mph 2.0 mph 70 % 0.00 in
04:52 47.1 °F 37.8 °F 29.92 in SSW 0.9 mph 1.2 mph 70 % 0.00 in
04:57 47.2 °F 37.5 °F 29.92 in SSW 0.6 mph 2.3 mph 69 % 0.00 in
05:02 47.4 °F 37.7 °F 29.92 in SW 2.9 mph 5.0 mph 69 % 0.00 in
05:07 47.7 °F 37.7 °F 29.92 in WSW 0.8 mph 3.5 mph 68 % 0.00 in
05:13 47.9 °F 37.8 °F 29.93 in WSW 1.3 mph 3.5 mph 68 % 0.00 in
05:18 48.3 °F 37.8 °F 29.93 in West 0.7 mph 3.5 mph 67 % 0.00 in
05:23 48.6 °F 37.7 °F 29.93 in West 0.5 mph 2.3 mph 66 % 0.00 in
05:28 49.0 °F 38.1 °F 29.93 in SSW 1.4 mph 4.6 mph 66 % 0.00 in
05:33 49.3 °F 38.0 °F 29.93 in SSW 3.0 mph 5.8 mph 65 % 0.00 in
05:38 49.6 °F 38.3 °F 29.93 in SSW 1.3 mph 3.5 mph 65 % 0.00 in
05:43 49.8 °F 38.5 °F 29.93 in SSW 2.3 mph 6.0 mph 65 % 0.00 in
05:53 50.3 °F 38.2 °F 29.93 in SSW 4.0 mph 5.0 mph 63 % 0.00 in
05:58 50.5 °F 38.4 °F 29.94 in WSW 1.1 mph 2.3 mph 63 % 0.00 in
06:04 50.8 °F 38.7 °F 29.94 in SW 4.2 mph 8.0 mph 63 % 0.00 in
06:09 51.0 °F 38.8 °F 29.94 in SW 1.1 mph 3.5 mph 63 % 0.00 in
06:14 51.2 °F 39.0 °F 29.94 in SSW 2.9 mph 6.0 mph 63 % 0.00 in
06:19 51.3 °F 39.1 °F 29.94 in SW 1.3 mph 3.5 mph 63 % 0.00 in
06:24 51.5 °F 38.9 °F 29.95 in SW 3.5 mph 5.8 mph 62 % 0.00 in
06:29 51.8 °F 39.6 °F 29.95 in SSW 0.9 mph 3.5 mph 63 % 0.00 in
06:34 52.0 °F 39.4 °F 29.95 in SW 2.5 mph 5.8 mph 62 % 0.00 in
06:39 52.3 °F 39.7 °F 29.94 in SSW 3.5 mph 6.9 mph 62 % 0.00 in
06:44 52.4 °F 39.3 °F 29.95 in SW 2.0 mph 5.8 mph 61 % 0.00 in
06:49 52.6 °F 39.5 °F 29.95 in SW 2.1 mph 4.0 mph 61 % 0.00 in
06:55 52.8 °F 39.3 °F 29.95 in SW 2.8 mph 5.8 mph 60 % 0.00 in
07:00 53.0 °F 39.5 °F 29.95 in SSW 1.3 mph 4.6 mph 60 % 0.00 in
07:05 53.1 °F 39.6 °F 29.95 in WSW 1.5 mph 3.5 mph 60 % 0.00 in
07:10 53.3 °F 39.3 °F 29.95 in WSW 1.2 mph 2.3 mph 59 % 0.00 in
07:15 53.5 °F 39.5 °F 29.95 in WSW 0.9 mph 3.5 mph 59 % 0.00 in
07:20 53.7 °F 39.3 °F 29.95 in WSW 2.4 mph 4.6 mph 58 % 0.00 in
07:25 53.9 °F 39.9 °F 29.95 in WNW 0.5 mph 2.0 mph 59 % 0.00 in
07:30 54.0 °F 40.0 °F 29.95 in SW 2.1 mph 4.0 mph 59 % 0.00 in
07:35 54.2 °F 40.6 °F 29.95 in SW 1.4 mph 2.3 mph 60 % 0.00 in
07:41 54.4 °F 40.8 °F 29.95 in SW 2.3 mph 3.5 mph 60 % 0.00 in
07:42 54.4 °F 39.9 °F 29.95 in SW 3.1 mph 5.8 mph 58 % 0.00 in
07:47 54.6 °F 40.6 °F 29.95 in WSW 1.6 mph 5.0 mph 59 % 0.00 in
07:52 54.9 °F 40.8 °F 29.95 in SW 2.4 mph 4.6 mph 59 % 0.00 in
07:57 55.2 °F 41.1 °F 29.96 in SW 3.0 mph 5.8 mph 59 % 0.00 in
08:02 55.5 °F 41.4 °F 29.96 in SSW 1.6 mph 3.5 mph 59 % 0.00 in
08:12 56.2 °F 41.6 °F 29.96 in SW 1.9 mph 5.0 mph 58 % 0.00 in
08:17 56.5 °F 41.0 °F 29.96 in West 1.9 mph 3.5 mph 56 % 0.00 in
08:22 56.9 °F 41.4 °F 29.97 in SW 1.5 mph 3.5 mph 56 % 0.00 in
08:27 57.3 °F 41.7 °F 29.97 in West 1.2 mph 4.6 mph 56 % 0.00 in
08:33 57.8 °F 41.7 °F 29.97 in SW 4.2 mph 6.9 mph 55 % 0.00 in
08:38 58.2 °F 41.6 °F 29.97 in SW 4.8 mph 8.1 mph 54 % 0.00 in
08:43 58.6 °F 42.0 °F 29.97 in West 3.3 mph 9.0 mph 54 % 0.00 in
08:48 59.0 °F 41.9 °F 29.96 in SSW 3.7 mph 7.0 mph 53 % 0.00 in
08:53 59.6 °F 41.9 °F 29.96 in SW 7.7 mph 12.7 mph 52 % 0.00 in
08:58 60.2 °F 42.0 °F 29.96 in West 4.8 mph 9.2 mph 51 % 0.00 in
09:03 60.7 °F 41.4 °F 29.96 in WSW 9.7 mph 12.7 mph 49 % 0.00 in
09:08 61.2 °F 41.3 °F 29.96 in WSW 6.7 mph 15.0 mph 48 % 0.00 in
09:13 61.7 °F 42.3 °F 29.96 in West 3.8 mph 10.4 mph 49 % 0.00 in
09:18 62.3 °F 41.8 °F 29.96 in West 3.7 mph 11.5 mph 47 % 0.00 in
09:24 62.9 °F 42.9 °F 29.96 in West 5.7 mph 9.2 mph 48 % 0.00 in
09:29 63.5 °F 43.4 °F 29.97 in NW 5.0 mph 8.1 mph 48 % 0.00 in
09:34 64.2 °F 44.1 °F 29.96 in West 2.0 mph 3.5 mph 48 % 0.00 in
09:39 64.8 °F 42.4 °F 29.97 in WSW 6.9 mph 11.0 mph 44 % 0.00 in
09:44 65.3 °F 42.2 °F 29.97 in WSW 6.2 mph 9.2 mph 43 % 0.00 in
09:49 65.8 °F 42.1 °F 29.97 in WSW 5.1 mph 8.0 mph 42 % 0.00 in
09:54 65.9 °F 42.8 °F 29.97 in SSW 3.5 mph 7.0 mph 43 % 0.00 in
09:59 66.2 °F 41.2 °F 29.97 in SSW 6.5 mph 11.5 mph 40 % 0.00 in
10:04 66.3 °F 41.2 °F 29.97 in WSW 5.6 mph 9.2 mph 40 % 0.00 in
10:09 66.6 °F 42.8 °F 29.97 in West 3.5 mph 5.8 mph 42 % 0.00 in
10:15 66.8 °F 41.7 °F 29.97 in SSW 4.2 mph 9.2 mph 40 % 0.00 in
10:20 67.5 °F 43.6 °F 29.97 in SSW 5.0 mph 8.0 mph 42 % 0.00 in
10:25 68.0 °F 42.8 °F 29.97 in NW 2.8 mph 5.8 mph 40 % 0.00 in
10:30 68.0 °F 42.1 °F 29.97 in WSW 4.6 mph 10.4 mph 39 % 0.00 in
10:35 68.0 °F 41.4 °F 29.97 in WNW 4.3 mph 7.0 mph 38 % 0.00 in
10:40 68.1 °F 42.2 °F 29.97 in SW 5.8 mph 8.1 mph 39 % 0.00 in
10:45 68.0 °F 41.4 °F 29.97 in WSW 5.7 mph 10.4 mph 38 % 0.00 in
10:50 68.2 °F 40.9 °F 29.97 in West 2.4 mph 4.6 mph 37 % 0.00 in
10:55 68.3 °F 42.4 °F 29.97 in SSW 3.0 mph 6.9 mph 39 % 0.00 in
11:00 68.6 °F 41.3 °F 29.97 in West 4.8 mph 6.9 mph 37 % 0.00 in
11:05 68.9 °F 41.5 °F 29.98 in SW 6.0 mph 6.9 mph 37 % 0.00 in
11:11 69.1 °F 43.1 °F 29.98 in WNW 3.9 mph 7.0 mph 39 % 0.00 in
11:16 69.4 °F 43.4 °F 29.98 in SW 3.4 mph 5.8 mph 39 % 0.00 in
11:21 69.7 °F 42.3 °F 29.98 in SW 6.9 mph 11.5 mph 37 % 0.00 in
11:26 70.0 °F 44.6 °F 29.97 in SW 7.4 mph 10.4 mph 40 % 0.00 in
11:31 70.1 °F 41.2 °F 29.97 in SSW 2.9 mph 6.9 mph 35 % 0.00 in
11:36 70.3 °F 42.8 °F 29.97 in SSW 4.0 mph 8.0 mph 37 % 0.00 in
11:41 70.6 °F 43.1 °F 29.97 in SW 3.3 mph 8.1 mph 37 % 0.00 in
11:46 70.8 °F 42.5 °F 29.97 in SW 2.8 mph 5.8 mph 36 % 0.00 in
11:51 70.8 °F 41.8 °F 29.97 in SW 6.7 mph 9.2 mph 35 % 0.00 in
11:56 70.8 °F 41.8 °F 29.97 in SW 4.0 mph 8.1 mph 35 % 0.00 in
12:02 71.0 °F 42.0 °F 29.96 in SW 5.3 mph 9.2 mph 35 % 0.00 in
12:07 71.0 °F 42.0 °F 29.97 in WNW 6.0 mph 11.5 mph 35 % 0.00 in
12:12 71.1 °F 42.8 °F 29.96 in SW 4.7 mph 6.9 mph 36 % 0.00 in
12:17 71.6 °F 43.2 °F 29.96 in SW 4.9 mph 8.1 mph 36 % 0.00 in
12:22 71.9 °F 42.0 °F 29.96 in WNW 2.4 mph 8.1 mph 34 % 0.00 in
12:27 72.1 °F 42.9 °F 29.97 in WNW 4.7 mph 9.2 mph 35 % 0.00 in
12:32 72.5 °F 42.5 °F 29.96 in NW 4.4 mph 9.2 mph 34 % 0.00 in
12:37 72.8 °F 43.5 °F 29.96 in WNW 4.7 mph 10.4 mph 35 % 0.00 in
12:42 73.0 °F 44.5 °F 29.96 in NW 3.0 mph 5.0 mph 36 % 0.00 in
12:47 73.7 °F 48.5 °F 29.96 in North 1.4 mph 3.5 mph 41 % 0.00 in
12:53 74.3 °F 44.1 °F 29.95 in NE 2.4 mph 6.9 mph 34 % 0.00 in
12:58 74.4 °F 44.2 °F 29.96 in SSW 5.5 mph 10.4 mph 34 % 0.00 in
13:03 74.4 °F 43.4 °F 29.96 in WSW 6.6 mph 10.4 mph 33 % 0.00 in
13:08 74.4 °F 42.6 °F 29.95 in WSW 3.2 mph 11.5 mph 32 % 0.00 in
13:13 74.6 °F 43.6 °F 29.95 in SW 3.2 mph 6.9 mph 33 % 0.00 in
13:18 74.8 °F 44.5 °F 29.95 in West 4.4 mph 6.9 mph 34 % 0.00 in
13:23 75.0 °F 43.1 °F 29.95 in WNW 9.9 mph 13.8 mph 32 % 0.00 in
13:28 75.0 °F 43.9 °F 29.95 in WSW 5.7 mph 12.0 mph 33 % 0.00 in
13:38 74.7 °F 42.9 °F 29.95 in West 5.1 mph 13.8 mph 32 % 0.00 in
13:44 74.5 °F 41.0 °F 29.95 in SW 4.5 mph 11.5 mph 30 % 0.00 in
13:49 74.4 °F 40.9 °F 29.94 in SW 6.7 mph 11.5 mph 30 % 0.00 in
13:54 74.5 °F 42.7 °F 29.95 in WSW 4.2 mph 8.1 mph 32 % 0.00 in
14:04 75.0 °F 41.5 °F 29.94 in SSW 4.5 mph 11.5 mph 30 % 0.00 in
14:09 74.7 °F 42.0 °F 29.94 in SSW 6.4 mph 12.0 mph 31 % 0.00 in
14:14 74.6 °F 42.8 °F 29.94 in WNW 2.1 mph 9.2 mph 32 % 0.00 in
14:19 74.2 °F 40.8 °F 29.94 in NW 5.8 mph 11.5 mph 30 % 0.00 in
14:24 73.6 °F 42.7 °F 29.94 in SW 4.0 mph 10.4 mph 33 % 0.00 in
14:29 73.1 °F 41.5 °F 29.94 in West 7.4 mph 12.7 mph 32 % 0.00 in
14:35 72.6 °F 41.0 °F 29.93 in WSW 6.5 mph 13.8 mph 32 % 0.00 in
14:40 72.5 °F 41.7 °F 29.93 in West 8.7 mph 10.4 mph 33 % 0.00 in
14:45 72.3 °F 42.3 °F 29.93 in WSW 7.7 mph 11.5 mph 34 % 0.00 in
14:50 72.2 °F 41.5 °F 29.93 in WSW 5.8 mph 11.5 mph 33 % 0.00 in
14:55 72.2 °F 41.5 °F 29.92 in SSW 9.8 mph 17.3 mph 33 % 0.00 in
15:00 72.1 °F 41.4 °F 29.92 in WSW 8.3 mph 17.3 mph 33 % 0.00 in
15:05 71.9 °F 40.4 °F 29.92 in SW 6.2 mph 13.8 mph 32 % 0.00 in
15:10 71.7 °F 41.8 °F 29.92 in SSW 4.4 mph 9.2 mph 34 % 0.00 in
15:15 71.5 °F 42.4 °F 29.92 in SSW 4.0 mph 9.2 mph 35 % 0.00 in
15:20 71.4 °F 41.6 °F 29.92 in WNW 6.4 mph 12.7 mph 34 % 0.00 in
15:26 71.6 °F 41.0 °F 29.92 in WSW 8.7 mph 17.3 mph 33 % 0.00 in
15:31 71.9 °F 42.0 °F 29.91 in WSW 5.0 mph 10.4 mph 34 % 0.00 in
15:36 71.9 °F 42.0 °F 29.91 in SSW 4.5 mph 11.5 mph 34 % 0.00 in
15:41 71.9 °F 42.0 °F 29.91 in WSW 6.7 mph 11.5 mph 34 % 0.00 in
15:46 71.9 °F 42.0 °F 29.91 in SW 5.7 mph 10.4 mph 34 % 0.00 in
15:51 72.2 °F 43.8 °F 29.91 in SW 7.2 mph 11.0 mph 36 % 0.00 in
15:56 72.4 °F 43.9 °F 29.90 in WNW 3.9 mph 6.9 mph 36 % 0.00 in
16:01 72.9 °F 42.9 °F 29.90 in West 3.7 mph 9.0 mph 34 % 0.00 in
16:11 73.3 °F 42.4 °F 29.90 in SW 4.3 mph 15.0 mph 33 % 0.00 in
16:17 73.3 °F 40.8 °F 29.90 in WSW 11.1 mph 19.6 mph 31 % 0.00 in
16:22 73.3 °F 42.4 °F 29.90 in WSW 3.4 mph 11.5 mph 33 % 0.00 in
16:32 73.3 °F 42.4 °F 29.90 in NW 2.7 mph 6.9 mph 33 % 0.00 in
16:37 73.3 °F 43.2 °F 29.90 in WNW 4.7 mph 6.9 mph 34 % 0.00 in
16:42 73.3 °F 44.7 °F 29.90 in West 2.1 mph 3.5 mph 36 % 0.00 in
16:47 73.3 °F 44.0 °F 29.89 in West 3.7 mph 9.2 mph 35 % 0.00 in
16:52 73.3 °F 44.0 °F 29.90 in NW 2.3 mph 5.0 mph 35 % 0.00 in
16:57 73.3 °F 41.6 °F 29.90 in WNW 3.3 mph 6.9 mph 32 % 0.00 in
17:02 73.1 °F 41.5 °F 29.90 in WNW 3.1 mph 9.2 mph 32 % 0.00 in
17:08 72.9 °F 41.3 °F 29.90 in SW 3.2 mph 8.1 mph 32 % 0.00 in
17:13 72.6 °F 41.0 °F 29.90 in West 3.8 mph 6.9 mph 32 % 0.00 in
17:18 72.4 °F 42.4 °F 29.89 in West 2.8 mph 4.6 mph 34 % 0.00 in
17:23 72.3 °F 41.6 °F 29.89 in WSW 3.3 mph 5.8 mph 33 % 0.00 in
17:28 72.2 °F 40.7 °F 29.89 in WNW 2.8 mph 8.1 mph 32 % 0.00 in
17:33 72.2 °F 42.3 °F 29.90 in West 3.6 mph 4.6 mph 34 % 0.00 in
17:38 72.1 °F 42.9 °F 29.90 in WNW 1.8 mph 4.6 mph 35 % 0.00 in
17:43 72.1 °F 43.7 °F 29.90 in West 1.9 mph 6.9 mph 36 % 0.00 in
17:48 71.9 °F 42.8 °F 29.90 in WSW 1.9 mph 6.9 mph 35 % 0.00 in
17:53 71.7 °F 43.3 °F 29.90 in SW 3.3 mph 5.8 mph 36 % 0.00 in
17:59 71.6 °F 43.9 °F 29.90 in West 2.4 mph 6.9 mph 37 % 0.00 in
18:04 71.6 °F 43.9 °F 29.90 in WSW 1.8 mph 3.5 mph 37 % 0.00 in
18:09 71.6 °F 43.9 °F 29.90 in SW 3.9 mph 6.0 mph 37 % 0.00 in
18:14 71.5 °F 43.8 °F 29.90 in WNW 3.0 mph 4.6 mph 37 % 0.00 in
18:24 71.2 °F 44.3 °F 29.91 in West 3.3 mph 4.6 mph 38 % 0.00 in
18:29 71.0 °F 44.8 °F 29.91 in North 1.0 mph 2.3 mph 39 % 0.00 in
18:34 70.6 °F 44.4 °F 29.91 in West 4.8 mph 5.0 mph 39 % 0.00 in
18:39 70.3 °F 44.2 °F 29.91 in NW 0.4 mph 2.3 mph 39 % 0.00 in
18:44 70.1 °F 44.6 °F 29.92 in SSW 2.9 mph 3.5 mph 40 % 0.00 in
18:50 69.7 °F 43.6 °F 29.92 in NW 4.0 mph 10.4 mph 39 % 0.00 in
18:55 69.4 °F 41.3 °F 29.92 in NW 3.7 mph 6.0 mph 36 % 0.00 in
19:00 69.3 °F 43.9 °F 29.93 in WNW 4.0 mph 6.9 mph 40 % 0.00 in
19:05 69.0 °F 43.0 °F 29.93 in WNW 2.0 mph 4.6 mph 39 % 0.00 in
19:10 68.7 °F 40.7 °F 29.93 in NNW 1.4 mph 3.5 mph 36 % 0.00 in
19:15 68.6 °F 40.6 °F 29.93 in WNW 2.2 mph 3.5 mph 36 % 0.00 in
19:20 68.4 °F 41.8 °F 29.94 in WNW 1.5 mph 4.6 mph 38 % 0.00 in
19:25 68.2 °F 42.3 °F 29.94 in WNW 1.8 mph 3.0 mph 39 % 0.00 in
19:30 67.9 °F 42.7 °F 29.94 in West 0.2 mph 1.2 mph 40 % 0.00 in
19:35 67.7 °F 41.8 °F 29.95 in Calm   3.5 mph 39 % 0.00 in
19:40 67.4 °F 40.9 °F 29.95 in WNW 1.2 mph 2.0 mph 38 % 0.00 in
19:46 67.1 °F 42.0 °F 29.95 in WNW 0.8 mph 1.2 mph 40 % 0.00 in
19:51 66.7 °F 41.6 °F 29.95 in Calm   1.2 mph 40 % 0.00 in
19:56 66.5 °F 42.1 °F 29.96 in WNW 0.2 mph 1.2 mph 41 % 0.00 in
20:01 66.1 °F 42.3 °F 29.96 in WNW 2.0 mph 3.5 mph 42 % 0.00 in
20:06 65.6 °F 41.9 °F 29.96 in WNW 1.1 mph 3.5 mph 42 % 0.00 in
20:16 64.7 °F 41.7 °F 29.97 in WNW 1.1 mph 3.5 mph 43 % 0.00 in
20:21 64.2 °F 41.2 °F 29.97 in WNW 0.1 mph 1.2 mph 43 % 0.00 in
20:26 64.0 °F 41.0 °F 29.98 in WNW 0.2 mph 1.2 mph 43 % 0.00 in
20:31 63.7 °F 40.8 °F 29.97 in WNW 1.9 mph 2.3 mph 43 % 0.00 in
20:37 63.4 °F 40.5 °F 29.97 in NW 0.8 mph 2.3 mph 43 % 0.00 in
20:42 63.1 °F 40.8 °F 29.98 in Calm   2.3 mph 44 % 0.00 in
20:47 62.9 °F 40.0 °F 29.98 in WNW 2.1 mph 3.5 mph 43 % 0.00 in
20:52 62.7 °F 39.9 °F 29.99 in WNW 1.6 mph 3.5 mph 43 % 0.00 in
20:57 62.5 °F 40.9 °F 29.99 in West 1.9 mph 3.5 mph 45 % 0.00 in
21:02 62.4 °F 40.8 °F 29.99 in West 1.0 mph 2.3 mph 45 % 0.00 in
21:07 62.3 °F 40.7 °F 30.00 in Calm   3.5 mph 45 % 0.00 in
21:17 62.0 °F 41.0 °F 30.01 in Calm   2.3 mph 46 % 0.00 in
21:22 61.9 °F 40.9 °F 30.01 in West 0.2 mph 1.2 mph 46 % 0.00 in
21:28 61.7 °F 41.3 °F 30.01 in West 0.2 mph 1.0 mph 47 % 0.00 in
21:33 61.5 °F 42.2 °F 30.02 in North 2.4 mph 6.0 mph 49 % 0.00 in
21:38 61.1 °F 40.7 °F 30.03 in NNE 2.4 mph 4.6 mph 47 % 0.00 in
21:43 60.7 °F 41.4 °F 30.04 in NNE 3.1 mph 5.8 mph 49 % 0.00 in
21:48 60.4 °F 40.1 °F 30.04 in NE 4.2 mph 9.2 mph 47 % 0.00 in
21:53 60.2 °F 38.8 °F 30.04 in NNE 4.3 mph 10.0 mph 45 % 0.00 in
21:58 60.1 °F 38.1 °F 30.04 in NNE 1.9 mph 3.5 mph 44 % 0.00 in
22:03 60.1 °F 38.7 °F 30.04 in NNW 1.3 mph 3.5 mph 45 % 0.00 in
22:08 60.0 °F 39.7 °F 30.05 in NNW 0.7 mph 4.6 mph 47 % 0.00 in
22:13 59.8 °F 41.1 °F 30.05 in North 3.1 mph 8.1 mph 50 % 0.00 in
22:19 59.5 °F 42.3 °F 30.06 in NNE 3.1 mph 5.8 mph 53 % 0.00 in
22:24 59.3 °F 44.1 °F 30.06 in ENE 1.4 mph 3.5 mph 57 % 0.00 in
22:29 58.9 °F 44.6 °F 30.06 in ENE 0.7 mph 2.3 mph 59 % 0.00 in
22:34 58.6 °F 44.3 °F 30.06 in North 3.7 mph 9.0 mph 59 % 0.00 in
22:39 57.9 °F 42.3 °F 30.06 in North 6.0 mph 11.5 mph 56 % 0.00 in
22:44 57.4 °F 42.3 °F 30.06 in North 6.3 mph 10.4 mph 57 % 0.00 in
22:49 57.1 °F 42.0 °F 30.07 in NNE 6.6 mph 10.4 mph 57 % 0.00 in
22:54 56.8 °F 41.7 °F 30.07 in NE 7.3 mph 10.4 mph 57 % 0.00 in
22:59 56.6 °F 41.5 °F 30.08 in North 8.5 mph 11.5 mph 57 % 0.00 in
23:10 56.3 °F 40.3 °F 30.08 in NNE 7.5 mph 12.7 mph 55 % 0.00 in
23:15 56.1 °F 40.6 °F 30.08 in NNE 5.7 mph 9.2 mph 56 % 0.00 in
23:20 56.0 °F 41.4 °F 30.08 in NNE 4.1 mph 6.9 mph 58 % 0.00 in
23:25 55.8 °F 40.8 °F 30.09 in NE 2.3 mph 9.2 mph 57 % 0.00 in
23:30 55.6 °F 43.2 °F 30.10 in NNE 2.6 mph 6.9 mph 63 % 0.00 in
23:35 55.5 °F 43.1 °F 30.10 in NNE 3.5 mph 9.0 mph 63 % 0.00 in
23:40 55.2 °F 43.2 °F 30.10 in NNE 5.9 mph 9.2 mph 64 % 0.00 in
23:45 54.9 °F 43.4 °F 30.10 in NNE 4.0 mph 6.9 mph 65 % 0.00 in
23:50 54.7 °F 43.6 °F 30.11 in NNE 3.9 mph 6.9 mph 66 % 0.00 in
23:55 54.6 °F 43.9 °F 30.11 in NNE 1.1 mph 3.0 mph 67 % 0.00 in
Crab Meadow Weather
Compliments of Weather Underground - 2.75 mb

Script developed by  Jim McMurry - jmcmurry@mwt.net Adapted for the template by  Wim van der Kuil - Leuven-Template.eu

Recycling: Americans use 2,500,000 plastic bottles every hour! Most of them are thrown away!